createdAt,value
2022-11-28T00:01:36.699Z,10.70
2022-11-28T00:04:05.910Z,11.00
2022-11-28T00:06:36.624Z,9.40
2022-11-28T00:09:04.093Z,9.38
2022-11-28T00:11:30.906Z,14.13
2022-11-28T00:13:57.622Z,10.55
2022-11-28T00:16:25.111Z,10.95
2022-11-28T00:18:53.984Z,9.45
2022-11-28T00:21:21.637Z,8.82
2022-11-28T00:23:49.025Z,12.15
2022-11-28T00:26:27.425Z,11.18
2022-11-28T00:28:56.089Z,13.27
2022-11-28T00:31:27.144Z,10.15
2022-11-28T00:33:55.335Z,9.57
2022-11-28T00:36:23.072Z,9.23
2022-11-28T00:38:51.111Z,9.27
2022-11-28T00:41:22.100Z,9.70
2022-11-28T00:43:50.532Z,12.95
2022-11-28T00:46:19.168Z,9.10
2022-11-28T00:48:46.468Z,11.55
2022-11-28T00:51:25.949Z,10.45
2022-11-28T00:53:55.286Z,11.13
2022-11-28T00:56:26.165Z,8.43
2022-11-28T00:58:53.017Z,9.18
2022-11-28T01:01:40.916Z,8.15
2022-11-28T01:04:11.013Z,9.57
2022-11-28T01:06:42.187Z,9.68
2022-11-28T01:09:16.512Z,11.35
2022-11-28T01:11:45.155Z,8.95
2022-11-28T01:14:13.381Z,12.90
2022-11-28T01:16:40.151Z,13.57
2022-11-28T01:19:07.398Z,10.18
2022-11-28T01:21:34.904Z,11.77
2022-11-28T01:24:01.685Z,12.10
2022-11-28T01:26:30.271Z,10.00
2022-11-28T01:28:58.916Z,8.30
2022-11-28T01:31:28.325Z,9.43
2022-11-28T01:33:55.835Z,14.10
2022-11-28T01:36:23.283Z,9.00
2022-11-28T01:38:50.624Z,8.07
2022-11-28T01:41:22.732Z,8.63
2022-11-28T01:46:24.313Z,9.23
2022-11-28T01:48:51.953Z,8.55
2022-11-28T01:51:18.748Z,9.88
2022-11-28T01:53:47.193Z,7.55
2022-11-28T01:56:18.477Z,9.55
2022-11-28T01:58:50.698Z,7.30
2022-11-28T02:01:19.031Z,9.75
2022-11-28T02:03:48.572Z,8.35
2022-11-28T02:06:20.573Z,8.98
2022-11-28T02:08:51.450Z,9.88
2022-11-28T02:11:57.018Z,7.90
2022-11-28T02:14:58.805Z,11.40
2022-11-28T02:17:48.241Z,7.67
2022-11-28T02:20:51.033Z,9.73
2022-11-28T02:23:45.919Z,7.35
2022-11-28T02:26:38.050Z,7.65
2022-11-28T02:29:55.418Z,8.27
2022-11-28T02:32:37.043Z,9.15
2022-11-28T02:35:43.004Z,10.30
2022-11-28T02:38:24.432Z,12.60
2022-11-28T02:40:53.450Z,9.63
2022-11-28T02:43:41.617Z,7.30
2022-11-28T02:46:22.657Z,11.18
2022-11-28T02:49:05.351Z,7.60
2022-11-28T02:51:38.023Z,6.78
2022-11-28T02:54:08.436Z,9.48
2022-11-28T02:56:35.131Z,11.35
2022-11-28T02:59:01.970Z,9.00
2022-11-28T03:01:36.890Z,9.10
2022-11-28T03:04:27.680Z,7.30
2022-11-28T03:07:53.330Z,10.20
2022-11-28T03:10:45.346Z,8.50
2022-11-28T03:13:35.563Z,8.82
2022-11-28T03:16:17.894Z,11.32
2022-11-28T03:22:09.852Z,8.85
2022-11-28T03:24:53.744Z,10.82
2022-11-28T03:27:38.496Z,11.48
2022-11-28T03:30:14.331Z,11.30
2022-11-28T03:32:42.299Z,13.38
2022-11-28T03:35:19.489Z,14.00
2022-11-28T03:38:04.836Z,9.50
2022-11-28T03:40:39.983Z,12.32
2022-11-28T03:43:13.104Z,11.93
2022-11-28T03:45:45.624Z,10.48
2022-11-28T03:48:32.569Z,11.45
2022-11-28T03:51:10.637Z,10.52
2022-11-28T03:54:12.216Z,10.18
2022-11-28T03:57:11.462Z,10.73
2022-11-28T03:59:49.232Z,10.02
2022-11-28T04:02:49.069Z,8.18
2022-11-28T04:05:37.398Z,8.85
2022-11-28T04:08:26.864Z,12.23
2022-11-28T04:11:13.883Z,8.18
2022-11-28T04:14:04.946Z,7.35
2022-11-28T04:16:36.701Z,11.30
2022-11-28T04:19:13.394Z,8.48
2022-11-28T04:21:55.372Z,7.40
2022-11-28T04:24:31.846Z,8.93
2022-11-28T04:27:08.258Z,8.32
2022-11-28T04:29:42.151Z,7.60
2022-11-28T04:32:11.288Z,10.30
2022-11-28T04:34:43.632Z,6.85
2022-11-28T04:37:14.751Z,7.90
2022-11-28T04:39:45.195Z,6.35
2022-11-28T04:42:17.650Z,7.70
2022-11-28T04:45:08.203Z,8.90
2022-11-28T04:47:34.990Z,7.25
2022-11-28T04:50:01.866Z,7.65
2022-11-28T04:53:09.433Z,7.43
2022-11-28T04:55:46.962Z,8.45
2022-11-28T04:58:24.743Z,8.35
2022-11-28T05:00:53.941Z,9.13
2022-11-28T05:03:21.300Z,9.13
2022-11-28T05:05:50.915Z,6.13
2022-11-28T05:08:19.003Z,7.55
2022-11-28T05:10:46.904Z,7.32
2022-11-28T05:13:13.629Z,9.45
2022-11-28T05:15:40.448Z,5.97
2022-11-28T05:18:07.419Z,8.93
2022-11-28T05:20:34.854Z,10.02
2022-11-28T05:23:01.522Z,8.73
2022-11-28T05:25:28.365Z,7.72
2022-11-28T05:27:55.604Z,8.70
2022-11-28T05:30:22.305Z,8.40
2022-11-28T05:32:48.987Z,6.55
2022-11-28T05:35:15.943Z,7.13
2022-11-28T05:37:42.618Z,6.10
2022-11-28T06:02:51.236Z,11.45
2022-11-28T06:05:41.034Z,10.82
2022-11-28T06:08:04.811Z,11.80
2022-11-28T06:10:31.519Z,8.10
2022-11-28T06:12:58.196Z,9.77
2022-11-28T06:15:24.923Z,9.35
2022-11-28T06:17:51.616Z,9.48
2022-11-28T06:20:18.390Z,10.98
2022-11-28T06:22:47.071Z,11.10
2022-11-28T06:25:13.769Z,9.18
2022-11-28T06:27:40.468Z,11.10
2022-11-28T06:30:07.974Z,8.63
2022-11-28T06:32:34.663Z,12.77
2022-11-28T06:35:01.342Z,8.38
2022-11-28T06:37:28.407Z,9.05
2022-11-28T06:39:55.143Z,9.25
2022-11-28T06:42:21.840Z,8.15
2022-11-28T06:44:48.528Z,8.52
2022-11-28T06:47:15.213Z,8.77
2022-11-28T06:49:42.447Z,9.35
2022-11-28T06:52:09.314Z,9.52
2022-11-28T06:54:36.061Z,9.48
2022-11-28T06:57:02.741Z,6.70
2022-11-28T06:59:29.564Z,8.63
2022-11-28T07:01:57.641Z,9.50
2022-11-28T07:04:24.432Z,9.27
2022-11-28T07:06:51.113Z,9.20
2022-11-28T07:09:17.802Z,8.15
2022-11-28T07:11:44.628Z,8.15
2022-11-28T07:14:11.400Z,10.77
2022-11-28T07:16:39.179Z,7.75
2022-11-28T07:19:05.940Z,6.45
2022-11-28T07:21:33.081Z,8.88
2022-11-28T07:24:00.401Z,9.43
2022-11-28T07:26:27.203Z,8.95
2022-11-28T07:28:55.916Z,9.43
2022-11-28T07:31:31.828Z,9.05
2022-11-28T07:34:03.023Z,8.93
2022-11-28T07:36:30.447Z,7.30
2022-11-28T07:39:00.355Z,10.82
2022-11-28T07:41:28.283Z,9.45
2022-11-28T07:43:59.273Z,8.18
2022-11-28T07:46:27.485Z,6.70
2022-11-28T07:48:54.251Z,9.88
2022-11-28T07:51:25.714Z,9.15
2022-11-28T07:53:52.755Z,7.97
2022-11-28T07:56:39.318Z,8.75
2022-11-28T07:59:06.517Z,9.05
2022-11-28T08:01:35.835Z,9.32
2022-11-28T08:04:05.720Z,9.63
2022-11-28T08:06:37.716Z,8.50
2022-11-28T08:09:04.932Z,7.57
2022-11-28T08:11:32.592Z,11.50
2022-11-28T08:13:59.823Z,7.03
2022-11-28T08:16:28.381Z,8.55
2022-11-28T08:18:56.487Z,7.20
2022-11-28T08:21:27.277Z,8.85
2022-11-28T08:23:55.740Z,8.65
2022-11-28T08:26:28.951Z,7.10
2022-11-28T08:28:57.865Z,8.32
2022-11-28T08:31:34.340Z,9.65
2022-11-28T08:34:04.957Z,8.07
2022-11-28T08:36:32.112Z,9.25
2022-11-28T08:39:17.120Z,10.80
2022-11-28T08:41:50.014Z,14.93
2022-11-28T08:44:16.763Z,11.05
2022-11-28T08:46:43.610Z,9.32
2022-11-28T08:49:10.425Z,9.02
2022-11-28T08:51:37.224Z,9.05
2022-11-28T08:54:04.017Z,9.15
2022-11-28T08:56:30.700Z,10.55
2022-11-28T08:58:57.439Z,9.18
2022-11-28T09:01:26.433Z,8.32
2022-11-28T09:03:55.835Z,12.27
2022-11-28T09:06:23.709Z,7.90
2022-11-28T09:08:52.161Z,10.90
2022-11-28T09:11:21.043Z,10.05
2022-11-28T09:13:47.813Z,9.85
2022-11-28T09:16:15.496Z,11.27
2022-11-28T09:18:42.555Z,8.80
2022-11-28T09:21:12.272Z,9.10
2022-11-28T09:23:41.400Z,10.50
2022-11-28T09:26:17.502Z,9.95
2022-11-28T09:28:45.458Z,9.15
2022-11-28T09:31:12.953Z,11.20
2022-11-28T09:33:40.383Z,11.05
2022-11-28T09:36:09.646Z,6.55
2022-11-28T09:38:37.523Z,7.82
2022-11-28T09:41:28.774Z,8.65
2022-11-28T09:44:23.047Z,7.40
2022-11-28T09:46:54.368Z,8.90
2022-11-28T09:49:48.276Z,5.80
2022-11-28T09:52:41.142Z,5.50
2022-11-28T09:55:40.811Z,5.35
2022-11-28T09:58:41.639Z,4.40
2022-11-28T10:01:20.129Z,5.35
2022-11-28T10:03:59.476Z,4.50
2022-11-28T10:06:47.361Z,4.85
2022-11-28T10:10:03.023Z,4.50
2022-11-28T10:13:09.819Z,4.80
2022-11-28T10:16:13.501Z,3.33
2022-11-28T10:19:05.315Z,4.47
2022-11-28T10:21:48.414Z,4.40
2022-11-28T10:24:21.128Z,4.60
2022-11-28T10:26:59.074Z,3.45
2022-11-28T10:29:50.665Z,2.80
2022-11-28T10:32:21.579Z,3.40
2022-11-28T10:35:26.723Z,4.18
2022-11-28T10:37:55.095Z,3.33
2022-11-28T10:40:38.407Z,2.30
2022-11-28T10:43:26.543Z,3.97
2022-11-28T10:46:43.637Z,4.38
2022-11-28T10:50:17.891Z,2.75
2022-11-28T10:52:50.024Z,4.80
2022-11-28T10:58:10.106Z,3.38
2022-11-28T11:00:38.260Z,3.63
2022-11-28T11:03:05.944Z,3.00
2022-11-28T11:05:37.199Z,3.45
2022-11-28T11:08:24.623Z,3.57
2022-11-28T11:11:00.061Z,4.38
2022-11-28T11:13:34.240Z,4.65
2022-11-28T11:16:08.281Z,4.07
2022-11-28T11:18:50.871Z,5.68
2022-11-28T11:21:24.771Z,4.75
2022-11-28T11:24:16.459Z,6.78
2022-11-28T11:26:47.312Z,5.20
2022-11-28T11:29:29.836Z,5.78
2022-11-28T11:32:03.404Z,4.63
2022-11-28T11:34:44.089Z,5.90
2022-11-28T11:37:23.358Z,4.97
2022-11-28T11:39:53.190Z,6.47
2022-11-28T11:42:29.643Z,6.43
2022-11-28T11:44:57.789Z,5.40
2022-11-28T11:47:43.448Z,6.30
2022-11-28T11:50:22.167Z,4.93
2022-11-28T11:53:11.158Z,7.68
2022-11-28T11:55:47.423Z,7.05
2022-11-28T11:58:21.704Z,6.28
2022-11-28T12:00:48.430Z,5.72
2022-11-28T12:03:49.412Z,4.85
2022-11-28T12:06:24.263Z,6.20
2022-11-28T12:09:03.041Z,5.40
2022-11-28T12:11:36.068Z,5.72
2022-11-28T12:14:36.389Z,4.63
2022-11-28T12:20:45.254Z,5.95
2022-11-28T12:23:30.844Z,8.13
2022-11-28T12:26:19.127Z,8.25
2022-11-28T12:29:47.003Z,5.20
2022-11-28T12:33:04.151Z,8.80
2022-11-28T12:35:43.549Z,6.70
2022-11-28T12:38:25.248Z,9.80
2022-11-28T12:41:40.093Z,11.65
2022-11-28T12:44:23.575Z,9.20
2022-11-28T12:47:08.678Z,8.15
2022-11-28T12:50:09.611Z,11.73
2022-11-28T12:53:02.227Z,10.38
2022-11-28T12:55:51.007Z,9.98
2022-11-28T12:58:53.290Z,7.35
2022-11-28T13:01:42.081Z,8.75
2022-11-28T13:04:39.710Z,11.93
2022-11-28T13:07:38.500Z,10.93
2022-11-28T13:10:29.159Z,8.77
2022-11-28T13:13:11.017Z,10.32
2022-11-28T13:16:16.437Z,9.63
2022-11-28T13:18:46.667Z,11.10
2022-11-28T13:21:26.748Z,15.68
2022-11-28T13:23:56.326Z,14.35
2022-11-28T13:26:37.230Z,25.80
2022-11-28T13:29:27.058Z,20.42
2022-11-28T13:32:22.219Z,26.52
2022-11-28T13:34:50.180Z,25.25
2022-11-28T13:41:03.980Z,20.23
2022-11-28T13:43:59.599Z,13.75
2022-11-28T13:46:26.972Z,15.65
2022-11-28T13:49:14.890Z,13.82
2022-11-28T13:51:42.327Z,18.10
2022-11-28T13:54:18.970Z,14.55
2022-11-28T13:56:50.493Z,13.88
2022-11-28T13:59:21.711Z,11.32
2022-11-28T14:01:58.028Z,13.83
2022-11-28T14:04:25.907Z,11.90
2022-11-28T14:07:01.915Z,10.30
2022-11-28T14:09:55.024Z,10.60
2022-11-28T14:12:37.917Z,10.60
2022-11-28T14:15:25.817Z,11.90
2022-11-28T14:18:54.945Z,25.58
2022-11-28T14:21:22.441Z,10.20
2022-11-28T14:24:10.967Z,6.85
2022-11-28T14:26:42.748Z,10.27
2022-11-28T14:29:24.355Z,13.85
2022-11-28T14:32:21.667Z,11.95
2022-11-28T14:34:48.819Z,11.52
2022-11-28T14:37:21.598Z,7.80
2022-11-28T14:39:52.951Z,9.35
2022-11-28T14:42:58.156Z,7.25
2022-11-28T14:45:43.297Z,8.50
2022-11-28T14:48:33.783Z,9.77
2022-11-28T14:51:02.254Z,9.90
2022-11-28T14:53:49.748Z,10.10
2022-11-28T14:56:16.335Z,13.63
2022-11-28T14:58:50.693Z,8.60
2022-11-28T15:01:47.621Z,9.98
2022-11-28T15:04:36.047Z,11.57
2022-11-28T15:07:04.950Z,9.32
2022-11-28T15:10:09.759Z,10.25
2022-11-28T15:13:07.666Z,8.65
2022-11-28T15:15:34.900Z,10.50
2022-11-28T15:18:04.646Z,12.55
2022-11-28T15:20:48.365Z,11.60
2022-11-28T15:23:36.867Z,9.43
2022-11-28T15:26:04.312Z,10.02
2022-11-28T15:28:33.919Z,10.60
2022-11-28T15:31:05.516Z,11.20
2022-11-28T15:33:33.495Z,9.32
2022-11-28T15:36:12.984Z,10.82
2022-11-28T15:38:42.386Z,10.73
2022-11-28T15:41:09.774Z,11.55
2022-11-28T15:43:38.738Z,14.45
2022-11-28T15:46:07.876Z,8.30
2022-11-28T15:48:40.448Z,11.50
2022-11-28T15:51:07.747Z,12.50
2022-11-28T15:53:42.123Z,12.88
2022-11-28T15:56:15.777Z,10.48
2022-11-28T15:58:44.619Z,10.18
2022-11-28T16:01:20.292Z,10.70
2022-11-28T16:04:05.543Z,11.13
2022-11-28T16:06:38.371Z,13.30
2022-11-28T16:09:18.517Z,10.63
2022-11-28T16:11:48.657Z,13.90
2022-11-28T16:14:43.116Z,12.82
2022-11-28T16:17:26.230Z,11.10
2022-11-28T16:19:54.712Z,12.52
2022-11-28T16:22:28.661Z,8.15
2022-11-28T16:24:56.269Z,9.80
2022-11-28T16:27:37.550Z,10.95
2022-11-28T16:30:37.192Z,11.35
2022-11-28T16:33:34.365Z,14.20
2022-11-28T16:36:24.945Z,13.63
2022-11-28T16:39:10.405Z,9.95
2022-11-28T16:41:40.394Z,12.07
2022-11-28T16:44:13.512Z,11.90
2022-11-28T16:46:53.946Z,11.02
2022-11-28T16:49:39.698Z,9.18
2022-11-28T16:52:21.605Z,10.20
2022-11-28T16:54:49.906Z,10.60
2022-11-28T16:57:18.930Z,11.48
2022-11-28T16:59:47.610Z,13.13
2022-11-28T17:02:23.904Z,10.73
2022-11-28T17:04:52.793Z,15.52
2022-11-28T17:07:24.311Z,15.35
2022-11-28T17:09:51.069Z,15.20
2022-11-28T17:12:26.357Z,14.75
2022-11-28T17:14:54.276Z,13.95
2022-11-28T17:17:25.488Z,14.60
2022-11-28T17:19:52.637Z,12.03
2022-11-28T17:22:23.935Z,13.60
2022-11-28T17:24:54.232Z,11.98
2022-11-28T17:27:21.044Z,18.23
2022-11-28T17:29:47.832Z,15.80
2022-11-28T17:32:14.919Z,16.65
2022-11-28T17:34:42.458Z,15.98
2022-11-28T17:37:10.089Z,14.48
2022-11-28T17:39:38.573Z,17.23
2022-11-28T17:42:05.939Z,16.90
2022-11-28T17:44:37.549Z,21.13
2022-11-28T17:47:04.361Z,13.88
2022-11-28T17:49:31.209Z,16.15
2022-11-28T17:51:58.127Z,16.27
2022-11-28T17:54:27.016Z,17.92
2022-11-28T17:56:54.623Z,17.10
2022-11-28T17:59:23.968Z,18.55
2022-11-28T18:01:51.018Z,17.33
2022-11-28T18:04:18.058Z,19.25
2022-11-28T18:06:46.736Z,21.73
2022-11-28T18:09:14.478Z,17.85
2022-11-28T18:11:42.449Z,17.55
2022-11-28T18:14:09.962Z,17.50
2022-11-28T18:16:36.944Z,19.13
2022-11-28T18:19:04.554Z,19.45
2022-11-28T18:21:32.196Z,19.33
2022-11-28T18:23:59.083Z,19.40
2022-11-28T18:26:26.658Z,18.33
2022-11-28T18:28:54.800Z,21.95
2022-11-28T18:31:25.903Z,21.25
2022-11-28T18:33:58.782Z,17.92
2022-11-28T18:36:30.693Z,17.77
2022-11-28T18:39:16.807Z,17.88
2022-11-28T18:41:43.491Z,22.25
2022-11-28T18:44:11.318Z,19.98
2022-11-28T18:46:39.661Z,19.88
2022-11-28T18:49:07.891Z,22.52
2022-11-28T18:51:35.438Z,21.00
2022-11-28T18:54:05.056Z,19.40
2022-11-28T18:56:32.203Z,19.63
2022-11-28T18:58:59.137Z,16.80
2022-11-28T19:01:30.203Z,20.33
2022-11-28T19:04:04.135Z,18.23
2022-11-28T19:06:31.498Z,17.58
2022-11-28T19:09:01.553Z,24.88
2022-11-28T19:11:29.387Z,19.35
2022-11-28T19:13:57.088Z,21.95
2022-11-28T19:16:32.694Z,17.27
2022-11-28T19:19:01.286Z,21.20
2022-11-28T19:21:32.902Z,25.65
2022-11-28T19:24:03.184Z,17.55
2022-11-28T19:26:34.048Z,15.52
2022-11-28T19:29:01.933Z,19.35
2022-11-28T19:31:32.216Z,21.27
2022-11-28T19:34:04.135Z,18.33
2022-11-28T19:36:34.228Z,18.58
2022-11-28T19:39:01.402Z,19.98
2022-11-28T19:41:30.046Z,18.98
2022-11-28T19:43:57.360Z,23.90
2022-11-28T19:46:25.234Z,21.95
2022-11-28T19:48:53.110Z,14.93
2022-11-28T19:51:20.524Z,16.52
2022-11-28T19:53:47.240Z,18.20
2022-11-28T19:56:18.280Z,18.35
2022-11-28T19:58:46.197Z,21.33
2022-11-28T20:01:15.533Z,15.93
2022-11-28T20:03:43.127Z,21.23
2022-11-28T20:06:20.712Z,15.43
2022-11-28T20:08:49.063Z,17.92
2022-11-28T20:11:18.180Z,18.83
2022-11-28T20:13:45.450Z,17.70
2022-11-28T20:16:15.351Z,20.20
2022-11-28T20:18:44.410Z,23.73
2022-11-28T20:21:17.414Z,17.13
2022-11-28T20:23:51.513Z,20.15
2022-11-28T20:26:21.372Z,20.40
2022-11-28T20:28:49.041Z,24.02
2022-11-28T20:31:37.824Z,27.13
2022-11-28T20:34:05.958Z,26.08
2022-11-28T20:36:32.903Z,26.27
2022-11-28T20:38:59.976Z,20.38
2022-11-28T20:41:28.418Z,16.20
2022-11-28T20:43:55.635Z,20.17
2022-11-28T20:46:30.215Z,22.35
2022-11-28T20:49:00.700Z,18.83
2022-11-28T20:51:29.728Z,17.75
2022-11-28T20:53:58.519Z,18.40
2022-11-28T20:56:29.593Z,32.97
2022-11-28T20:59:00.471Z,19.27
2022-11-28T21:01:33.209Z,27.77
2022-11-28T21:04:05.880Z,17.67
2022-11-28T21:06:33.108Z,22.27
2022-11-28T21:08:59.967Z,22.33
2022-11-28T21:14:19.166Z,22.88
2022-11-28T21:16:45.940Z,24.15
2022-11-28T21:19:12.815Z,24.02
2022-11-28T21:21:40.270Z,21.25
2022-11-28T21:24:11.917Z,26.98
2022-11-28T21:26:43.148Z,20.92
2022-11-28T21:29:13.551Z,20.90
2022-11-28T21:31:43.420Z,22.08
2022-11-28T21:34:14.313Z,22.65
2022-11-28T21:36:42.097Z,22.77
2022-11-28T21:39:13.923Z,20.02
2022-11-28T21:41:40.893Z,20.25
2022-11-28T21:44:07.751Z,21.38
2022-11-28T21:46:34.579Z,22.45
2022-11-28T21:49:01.764Z,19.60
2022-11-28T21:51:28.620Z,21.25
2022-11-28T21:53:57.266Z,20.98
2022-11-28T21:56:25.334Z,21.85
2022-11-28T21:58:52.435Z,21.08
2022-11-28T22:01:20.994Z,19.52
2022-11-28T22:03:47.899Z,22.00
2022-11-28T22:06:23.622Z,18.60
2022-11-28T22:08:51.864Z,19.35
2022-11-28T22:11:20.693Z,25.08
2022-11-28T22:13:49.090Z,19.85
2022-11-28T22:16:22.738Z,21.30
2022-11-28T22:18:52.300Z,22.35
2022-11-28T22:21:50.537Z,23.33
2022-11-28T22:24:06.852Z,20.00
2022-11-28T22:26:33.757Z,29.80
2022-11-28T22:29:00.962Z,22.85
2022-11-28T22:31:27.758Z,20.38
2022-11-28T22:33:54.500Z,21.35
2022-11-28T22:36:22.003Z,20.45
2022-11-28T22:38:54.685Z,23.65
2022-11-28T22:41:28.303Z,22.92
2022-11-28T22:43:59.302Z,29.00
2022-11-28T22:46:26.120Z,27.33
2022-11-28T22:48:52.818Z,21.60
2022-11-28T22:51:25.237Z,24.50
2022-11-28T22:54:00.637Z,21.38
2022-11-28T22:56:29.072Z,25.17
2022-11-28T22:58:55.955Z,19.50
2022-11-28T23:01:26.557Z,25.67
2022-11-28T23:03:54.866Z,23.15
2022-11-28T23:06:28.852Z,25.73
2022-11-28T23:08:58.081Z,19.35
2022-11-28T23:11:28.870Z,18.85
2022-11-28T23:13:56.754Z,21.27
2022-11-28T23:16:27.943Z,17.20
2022-11-28T23:18:58.578Z,21.33
2022-11-28T23:21:29.045Z,22.45
2022-11-28T23:23:55.728Z,20.40
2022-11-28T23:26:26.107Z,21.63
2022-11-28T23:28:53.671Z,40.03
2022-11-28T23:31:26.644Z,20.30
2022-11-28T23:33:53.842Z,24.77
2022-11-28T23:36:23.231Z,23.13
2022-11-28T23:38:55.947Z,22.40
2022-11-28T23:41:23.278Z,23.42
2022-11-28T23:43:50.283Z,20.27
2022-11-28T23:46:18.575Z,25.10
2022-11-28T23:48:46.491Z,19.88
2022-11-28T23:51:15.273Z,27.77
2022-11-28T23:53:43.026Z,19.73
2022-11-28T23:56:17.145Z,28.45
2022-11-28T23:58:44.562Z,20.52
